Time;durP1;ratioP1;P1;durP2;ratioP2;P2;SDS_P1;SDS_P2;PMS_P1;PMS_P2;Temp;Humidity;BMP_temperature;BMP_pressure;BME280_temperature;BME280_humidity;BME280_pressure;Samples;Min_cycle;Max_cycle;Signal;HPM_P1;HPM_P2
2023/06/06 00:01:18;;;;;;;11.53;8.50;;;18.40;99.90;;;;;;5039122;28;20190;-78
2023/06/06 00:03:45;;;;;;;14.70;8.40;;;18.40;99.90;;;;;;5085492;27;20181;-78
2023/06/06 00:06:13;;;;;;;10.37;8.20;;;18.40;99.90;;;;;;5056922;28;21500;-77
2023/06/06 00:08:41;;;;;;;15.97;8.33;;;18.40;99.90;;;;;;5053903;28;20883;-76
2023/06/06 00:11:07;;;;;;;12.50;8.87;;;18.30;99.90;;;;;;5071027;28;20301;-76
2023/06/06 00:13:34;;;;;;;12.70;8.53;;;18.30;99.90;;;;;;5038695;28;20535;-76
2023/06/06 00:16:02;;;;;;;13.57;9.13;;;18.40;99.90;;;;;;5041441;28;20388;-77
2023/06/06 00:18:28;;;;;;;13.23;8.40;;;18.40;99.90;;;;;;5076588;28;20197;-76
2023/06/06 00:20:55;;;;;;;13.47;8.63;;;18.40;99.90;;;;;;5039733;28;20185;-77
2023/06/06 00:23:22;;;;;;;16.87;9.80;;;18.50;99.90;;;;;;5070706;28;20274;-76
2023/06/06 00:25:50;;;;;;;15.53;9.63;;;18.50;99.90;;;;;;5054745;28;20202;-76
2023/06/06 00:28:17;;;;;;;12.77;9.37;;;18.50;99.90;;;;;;5073190;28;20776;-77
2023/06/06 00:30:43;;;;;;;16.13;9.33;;;18.50;99.90;;;;;;5054556;28;20235;-77
2023/06/06 00:33:10;;;;;;;13.00;9.30;;;18.50;99.90;;;;;;5053233;28;20268;-76
2023/06/06 00:35:37;;;;;;;15.00;9.37;;;18.60;99.90;;;;;;5074745;28;20194;-77
2023/06/06 00:38:03;;;;;;;12.97;9.87;;;18.60;99.90;;;;;;5073627;28;20193;-76
2023/06/06 00:40:29;;;;;;;14.83;9.23;;;18.50;99.90;;;;;;5043802;28;20588;-76
2023/06/06 00:42:55;;;;;;;12.17;8.47;;;18.50;99.90;;;;;;5071096;28;20278;-76
2023/06/06 00:45:22;;;;;;;11.27;8.50;;;18.40;99.90;;;;;;5072166;28;20182;-76
2023/06/06 00:47:48;;;;;;;12.97;9.03;;;18.40;99.90;;;;;;5087349;28;20705;-76
2023/06/06 00:50:16;;;;;;;13.17;8.97;;;18.30;99.90;;;;;;5075627;28;20214;-78
2023/06/06 00:52:46;;;;;;;16.53;9.47;;;18.30;99.90;;;;;;5075417;28;20186;-77
2023/06/06 00:55:17;;;;;;;10.50;9.37;;;18.20;99.90;;;;;;5059947;28;20245;-78
2023/06/06 00:57:47;;;;;;;13.13;9.00;;;18.20;99.90;;;;;;5084801;28;20190;-77
2023/06/06 01:00:15;;;;;;;11.70;8.03;;;18.10;99.90;;;;;;5056548;28;20547;-79
2023/06/06 01:02:43;;;;;;;12.37;8.53;;;18.10;99.90;;;;;;5088297;28;20195;-77
2023/06/06 01:05:10;;;;;;;13.43;8.60;;;18.10;99.90;;;;;;5056219;28;20243;-77
2023/06/06 01:07:37;;;;;;;11.60;8.60;;;18.10;99.90;;;;;;5072750;28;20285;-77
2023/06/06 01:10:07;;;;;;;12.97;8.70;;;18.00;99.90;;;;;;5073100;28;20218;-79
2023/06/06 01:13:02;;;;;;;15.03;8.50;;;17.90;99.90;;;;;;5055235;28;20169;-78
2023/06/06 01:15:44;;;;;;;12.47;8.73;;;17.80;99.90;;;;;;5062998;28;20246;-79
2023/06/06 01:18:12;;;;;;;11.40;8.07;;;17.80;99.90;;;;;;5057643;28;20246;-77
2023/06/06 01:20:42;;;;;;;10.43;8.33;;;17.80;99.90;;;;;;5091407;27;20194;-78
2023/06/06 01:23:11;;;;;;;10.87;8.97;;;17.80;99.90;;;;;;5043985;28;20202;-78
2023/06/06 01:25:42;;;;;;;13.33;9.23;;;17.70;99.90;;;;;;5064142;28;20190;-78
2023/06/06 01:28:15;;;;;;;10.13;8.23;;;17.80;99.90;;;;;;5077627;28;20194;-79
2023/06/06 01:30:44;;;;;;;16.57;9.77;;;17.80;99.90;;;;;;5083827;28;20547;-78
2023/06/06 01:33:21;;;;;;;12.23;8.50;;;17.80;99.90;;;;;;5092997;27;20583;-78
2023/06/06 01:36:29;;;;;;;13.77;8.97;;;17.80;99.90;;;;;;5054956;28;20201;-79
2023/06/06 01:39:11;;;;;;;9.03;8.07;;;17.80;99.90;;;;;;5078489;28;20183;-78
2023/06/06 01:41:39;;;;;;;13.87;8.10;;;17.90;99.90;;;;;;5075540;28;20194;-79
2023/06/06 01:44:10;;;;;;;15.17;8.80;;;17.90;99.90;;;;;;5062933;28;21119;-79
2023/06/06 01:46:39;;;;;;;12.50;8.70;;;17.90;99.90;;;;;;5077099;28;20216;-78
2023/06/06 01:49:08;;;;;;;14.63;8.50;;;17.90;99.90;;;;;;5056269;28;20589;-78
2023/06/06 01:51:35;;;;;;;13.43;8.67;;;17.90;99.90;;;;;;5053558;28;20186;-75
2023/06/06 01:54:01;;;;;;;14.13;8.93;;;17.90;99.90;;;;;;5043437;28;20595;-78
2023/06/06 01:56:27;;;;;;;15.50;8.67;;;17.90;99.90;;;;;;5057987;28;20259;-77
2023/06/06 01:58:54;;;;;;;12.80;7.97;;;17.90;99.90;;;;;;5093977;27;20213;-77
2023/06/06 02:01:20;;;;;;;13.67;8.40;;;17.90;99.90;;;;;;5077920;28;20191;-77
2023/06/06 02:03:46;;;;;;;10.63;7.57;;;17.80;99.90;;;;;;5087685;28;20189;-76
2023/06/06 02:06:14;;;;;;;16.33;8.23;;;17.80;99.90;;;;;;5079969;28;20579;-77
2023/06/06 02:08:41;;;;;;;12.37;7.70;;;17.80;99.90;;;;;;5075101;28;20201;-77
2023/06/06 02:11:07;;;;;;;16.93;8.00;;;17.70;99.90;;;;;;5076645;28;20231;-77
2023/06/06 02:13:33;;;;;;;9.57;7.20;;;17.70;99.90;;;;;;5063227;28;20178;-78
2023/06/06 02:15:59;;;;;;;14.30;7.77;;;17.60;99.90;;;;;;5061473;28;20643;-78
2023/06/06 02:18:25;;;;;;;13.63;8.47;;;17.60;99.90;;;;;;5061197;28;20547;-78
2023/06/06 02:20:52;;;;;;;11.50;7.90;;;17.60;99.90;;;;;;5075027;28;20770;-78
2023/06/06 02:23:19;;;;;;;15.30;7.60;;;17.70;99.90;;;;;;5077108;28;20206;-78
2023/06/06 02:25:48;;;;;;;10.20;7.50;;;17.60;99.90;;;;;;5043380;28;20186;-78
2023/06/06 02:28:15;;;;;;;12.37;7.77;;;17.60;99.90;;;;;;5046040;28;20186;-78
2023/06/06 02:30:42;;;;;;;11.20;7.40;;;17.50;99.90;;;;;;5074495;28;20209;-78
2023/06/06 02:33:08;;;;;;;13.27;7.00;;;17.50;99.90;;;;;;5045988;28;20254;-78
2023/06/06 02:35:35;;;;;;;12.63;7.40;;;17.40;99.90;;;;;;5060574;28;20182;-77
2023/06/06 02:38:01;;;;;;;12.13;7.40;;;17.40;99.90;;;;;;5061305;28;20280;-77
2023/06/06 02:40:28;;;;;;;11.03;7.00;;;17.30;99.90;;;;;;5074658;28;20206;-77
2023/06/06 02:42:54;;;;;;;11.37;7.63;;;17.20;99.90;;;;;;5060565;28;20197;-78
2023/06/06 02:45:21;;;;;;;12.77;7.30;;;17.30;99.90;;;;;;5081401;28;20255;-78
2023/06/06 02:47:48;;;;;;;9.77;7.03;;;17.30;99.90;;;;;;5077974;28;20206;-78
2023/06/06 02:50:14;;;;;;;8.00;7.20;;;17.30;99.90;;;;;;5063580;28;20183;-76
2023/06/06 02:52:41;;;;;;;16.10;9.33;;;17.30;99.90;;;;;;5074927;28;20268;-76
2023/06/06 02:55:07;;;;;;;10.77;7.70;;;17.30;99.90;;;;;;5075397;28;20198;-76
2023/06/06 02:57:35;;;;;;;12.17;8.50;;;17.30;99.90;;;;;;5058445;28;20194;-76
2023/06/06 03:00:03;;;;;;;12.40;8.37;;;17.40;99.90;;;;;;5073359;28;20775;-76
2023/06/06 03:02:29;;;;;;;15.20;8.57;;;17.50;99.90;;;;;;5081913;28;20197;-77
2023/06/06 03:04:55;;;;;;;16.30;9.30;;;17.50;99.90;;;;;;5069453;28;21027;-77
2023/06/06 03:07:22;;;;;;;19.00;9.03;;;17.50;99.90;;;;;;5082389;28;20218;-76
2023/06/06 03:09:48;;;;;;;13.17;9.17;;;17.50;99.90;;;;;;5052639;28;20213;-78
2023/06/06 03:12:14;;;;;;;13.93;8.63;;;17.50;99.90;;;;;;5075526;28;20194;-77
2023/06/06 03:14:40;;;;;;;13.33;8.40;;;17.50;99.90;;;;;;5076742;28;20262;-78
2023/06/06 03:17:07;;;;;;;13.83;8.80;;;17.60;99.90;;;;;;5078579;28;20200;-77
2023/06/06 03:19:34;;;;;;;12.03;7.90;;;17.60;99.90;;;;;;5045287;28;20748;-77
2023/06/06 03:22:01;;;;;;;12.03;8.00;;;17.60;99.90;;;;;;5049973;28;20202;-77
2023/06/06 03:24:29;;;;;;;17.70;9.77;;;17.60;99.90;;;;;;5092091;27;20491;-77
2023/06/06 03:26:56;;;;;;;16.10;8.40;;;17.60;99.90;;;;;;5074231;28;20263;-77
2023/06/06 03:29:22;;;;;;;12.63;8.50;;;17.60;99.90;;;;;;5059279;28;20336;-77
2023/06/06 03:31:49;;;;;;;14.27;8.63;;;17.70;99.90;;;;;;5070163;28;20193;-76
2023/06/06 03:34:15;;;;;;;15.73;8.07;;;17.70;99.90;;;;;;5058296;28;20182;-76
2023/06/06 03:36:41;;;;;;;12.67;8.40;;;17.80;99.90;;;;;;5073417;28;20229;-77
2023/06/06 03:39:08;;;;;;;14.53;8.17;;;17.90;99.90;;;;;;5059777;28;20209;-77
2023/06/06 03:41:34;;;;;;;12.27;8.33;;;17.90;99.90;;;;;;5076332;28;20177;-77
2023/06/06 03:44:01;;;;;;;14.53;8.43;;;18.00;99.90;;;;;;5089865;27;20701;-77
2023/06/06 03:46:27;;;;;;;11.83;8.10;;;18.00;99.90;;;;;;5060402;28;20239;-77
2023/06/06 03:48:55;;;;;;;13.60;8.13;;;18.00;99.90;;;;;;5057580;28;20826;-76
2023/06/06 03:51:21;;;;;;;11.77;7.87;;;18.10;99.90;;;;;;5075349;28;20198;-76
2023/06/06 03:53:48;;;;;;;12.07;8.10;;;18.10;99.90;;;;;;5070747;28;20268;-76
2023/06/06 03:56:15;;;;;;;11.70;8.20;;;18.10;99.90;;;;;;5058552;28;20186;-78
2023/06/06 03:58:41;;;;;;;15.40;8.10;;;18.10;99.90;;;;;;5060107;28;20199;-78
2023/06/06 04:01:07;;;;;;;13.13;8.10;;;18.10;99.90;;;;;;5088653;27;20213;-78
2023/06/06 04:03:36;;;;;;;11.90;8.17;;;18.10;99.90;;;;;;5075672;28;20192;-78
2023/06/06 04:06:08;;;;;;;14.13;8.07;;;18.10;99.90;;;;;;5059435;28;20318;-78
2023/06/06 04:08:35;;;;;;;13.57;8.90;;;18.10;99.90;;;;;;5072577;28;20186;-78
2023/06/06 04:11:02;;;;;;;14.63;8.73;;;18.20;99.90;;;;;;5075474;28;20952;-77
2023/06/06 04:13:28;;;;;;;13.43;8.40;;;18.20;99.90;;;;;;5059299;28;20265;-76
2023/06/06 04:15:57;;;;;;;13.93;8.90;;;18.20;99.90;;;;;;5072553;28;20262;-78
2023/06/06 04:18:23;;;;;;;12.90;9.03;;;18.30;99.90;;;;;;5090084;27;20331;-77
2023/06/06 04:20:52;;;;;;;12.77;8.43;;;18.30;99.90;;;;;;5075320;28;20222;-77
2023/06/06 04:23:19;;;;;;;12.43;8.63;;;18.30;99.90;;;;;;5074085;28;20206;-77
2023/06/06 04:25:46;;;;;;;17.03;9.37;;;18.40;99.90;;;;;;5053284;28;20226;-78
2023/06/06 04:28:17;;;;;;;12.07;8.97;;;18.40;99.90;;;;;;5073212;28;20248;-78
2023/06/06 04:30:46;;;;;;;17.53;8.93;;;18.50;99.90;;;;;;5061582;28;20185;-77
2023/06/06 04:33:12;;;;;;;13.87;8.90;;;18.50;99.90;;;;;;5070011;28;22430;-77
2023/06/06 04:35:42;;;;;;;11.70;8.40;;;18.60;99.90;;;;;;5069016;28;20247;-78
2023/06/06 04:38:10;;;;;;;15.10;8.73;;;18.60;99.90;;;;;;5092258;27;20190;-77
2023/06/06 04:40:39;;;;;;;15.97;9.00;;;18.70;99.90;;;;;;5087451;27;20195;-77
2023/06/06 04:43:07;;;;;;;10.77;8.30;;;18.70;99.90;;;;;;5087448;27;20703;-78
2023/06/06 04:45:34;;;;;;;13.57;8.80;;;18.70;99.90;;;;;;5058458;28;20183;-77
2023/06/06 04:48:02;;;;;;;10.10;7.57;;;18.80;99.90;;;;;;5092717;28;20775;-77
2023/06/06 04:50:29;;;;;;;11.00;8.10;;;18.80;99.90;;;;;;5066317;28;20281;-77
2023/06/06 04:52:55;;;;;;;11.63;7.70;;;18.80;99.90;;;;;;5072086;28;20634;-77
2023/06/06 04:55:22;;;;;;;19.37;8.60;;;18.90;99.90;;;;;;5072877;28;20197;-78
2023/06/06 04:57:48;;;;;;;13.90;7.80;;;18.90;99.90;;;;;;5072518;28;20198;-77
2023/06/06 05:00:16;;;;;;;12.30;7.70;;;18.90;99.90;;;;;;5070448;28;20632;-78
2023/06/06 05:02:42;;;;;;;9.53;7.23;;;19.00;99.90;;;;;;5055717;28;20197;-77
2023/06/06 05:05:09;;;;;;;14.37;7.63;;;19.10;99.90;;;;;;5053997;28;20194;-77
2023/06/06 05:07:37;;;;;;;11.47;7.37;;;19.10;99.90;;;;;;5058944;28;20297;-77
2023/06/06 05:10:03;;;;;;;16.00;7.77;;;19.20;99.90;;;;;;5074137;28;20263;-77
2023/06/06 05:12:30;;;;;;;12.70;8.33;;;19.20;99.90;;;;;;5057468;28;20666;-77
2023/06/06 05:14:56;;;;;;;14.97;8.40;;;19.20;99.90;;;;;;5053388;28;20198;-77
2023/06/06 05:17:23;;;;;;;11.23;7.13;;;19.20;99.90;;;;;;5076990;28;20222;-77
2023/06/06 05:19:49;;;;;;;12.50;8.10;;;19.30;99.90;;;;;;5058619;28;20213;-77
2023/06/06 05:22:16;;;;;;;14.97;8.33;;;19.30;99.90;;;;;;5074198;28;20189;-77
2023/06/06 05:24:43;;;;;;;16.13;8.70;;;19.40;99.90;;;;;;5060263;28;20244;-76
2023/06/06 05:27:12;;;;;;;12.23;8.10;;;19.40;99.90;;;;;;5073374;28;20274;-76
2023/06/06 05:29:38;;;;;;;15.47;8.40;;;19.50;99.90;;;;;;5076354;28;20182;-77
2023/06/06 05:32:06;;;;;;;11.80;8.40;;;19.50;99.90;;;;;;5073253;28;20606;-77
2023/06/06 05:34:33;;;;;;;14.40;7.47;;;19.60;99.90;;;;;;5038863;28;20683;-78
2023/06/06 05:36:59;;;;;;;13.73;8.63;;;19.60;99.90;;;;;;5071437;28;20581;-78
2023/06/06 05:39:25;;;;;;;14.27;8.03;;;19.70;99.90;;;;;;5075117;28;20193;-77
2023/06/06 05:41:54;;;;;;;11.67;7.17;;;19.70;99.90;;;;;;5058552;28;20294;-76
2023/06/06 05:44:23;;;;;;;14.70;7.73;;;19.80;99.90;;;;;;5091747;28;20198;-77
2023/06/06 05:46:54;;;;;;;16.87;8.77;;;19.80;99.90;;;;;;5073443;28;20206;-77
2023/06/06 05:49:22;;;;;;;13.57;7.93;;;19.90;99.90;;;;;;5086032;28;20205;-77
2023/06/06 05:51:49;;;;;;;14.97;7.37;;;20.00;99.90;;;;;;5067132;28;20660;-77
2023/06/06 05:54:16;;;;;;;14.27;7.60;;;20.00;99.90;;;;;;5060411;28;20243;-78
2023/06/06 05:56:42;;;;;;;15.00;8.07;;;20.00;99.90;;;;;;5055896;28;20204;-77
2023/06/06 05:59:09;;;;;;;10.80;7.53;;;20.10;99.90;;;;;;5092065;28;20547;-77
2023/06/06 06:01:39;;;;;;;14.43;7.70;;;20.10;99.90;;;;;;5072857;28;20194;-78
2023/06/06 06:04:07;;;;;;;13.20;7.90;;;20.20;99.90;;;;;;5076327;28;20186;-79
2023/06/06 06:06:37;;;;;;;12.23;7.60;;;20.20;99.90;;;;;;5059247;28;20221;-77
2023/06/06 06:09:04;;;;;;;11.37;7.60;;;20.30;99.90;;;;;;5093234;27;20198;-75
2023/06/06 06:11:31;;;;;;;13.53;7.57;;;20.30;99.90;;;;;;5043970;28;20279;-78
2023/06/06 06:13:58;;;;;;;14.37;8.60;;;20.40;99.90;;;;;;5094740;27;20194;-79
2023/06/06 06:16:25;;;;;;;14.20;8.37;;;20.40;99.90;;;;;;5074162;28;20287;-77
2023/06/06 06:18:53;;;;;;;15.67;9.10;;;20.50;99.90;;;;;;5080173;28;20198;-77
2023/06/06 06:21:21;;;;;;;14.43;8.60;;;20.50;99.90;;;;;;5065872;28;20197;-79
2023/06/06 06:23:51;;;;;;;13.27;8.90;;;20.60;99.90;;;;;;5079537;28;20320;-78
2023/06/06 06:26:18;;;;;;;12.03;8.30;;;20.60;99.90;;;;;;5089765;27;20268;-76
2023/06/06 06:28:45;;;;;;;17.20;7.90;;;20.70;99.90;;;;;;5060024;28;20182;-76
2023/06/06 06:31:12;;;;;;;12.47;8.20;;;20.80;99.90;;;;;;5076690;28;20182;-76
2023/06/06 06:33:38;;;;;;;11.00;7.90;;;20.80;99.90;;;;;;5056848;28;20277;-76
2023/06/06 06:36:09;;;;;;;14.53;8.30;;;20.90;99.90;;;;;;5057912;28;20186;-74
2023/06/06 06:38:36;;;;;;;16.17;7.43;;;21.00;99.90;;;;;;5073097;28;20198;-75
2023/06/06 06:41:03;;;;;;;11.80;7.80;;;21.00;99.90;;;;;;5074138;28;20212;-75
2023/06/06 06:43:30;;;;;;;14.88;8.25;;;21.10;99.90;;;;;;5059666;28;20611;-75
2023/06/06 06:45:57;;;;;;;16.60;7.80;;;21.20;99.90;;;;;;5058910;28;20209;-75
2023/06/06 06:48:26;;;;;;;9.97;7.77;;;21.20;99.90;;;;;;5059908;28;20271;-74
2023/06/06 06:50:53;;;;;;;12.73;7.57;;;21.30;99.90;;;;;;5073673;28;20207;-75
2023/06/06 06:53:23;;;;;;;16.10;8.13;;;21.40;99.90;;;;;;5076381;28;20195;-75
2023/06/06 06:55:52;;;;;;;13.87;7.37;;;21.40;99.90;;;;;;5066211;28;20246;-75
2023/06/06 06:58:25;;;;;;;14.57;8.27;;;21.40;99.90;;;;;;5057964;28;20190;-75
2023/06/06 07:00:56;;;;;;;9.48;7.20;;;21.50;99.90;;;;;;5089608;27;20547;-75
2023/06/06 07:03:22;;;;;;;12.00;6.37;;;21.60;99.90;;;;;;5056710;28;20194;-75
2023/06/06 07:05:48;;;;;;;12.73;7.23;;;21.60;99.90;;;;;;5054557;28;20189;-75
2023/06/06 07:08:15;;;;;;;11.63;6.38;;;21.60;99.90;;;;;;5061300;28;20654;-74
2023/06/06 07:10:42;;;;;;;12.43;6.03;;;21.70;99.90;;;;;;5096258;27;20186;-75
2023/06/06 07:13:08;;;;;;;11.07;6.22;;;21.70;99.90;;;;;;5071887;28;20662;-75
2023/06/06 07:15:37;;;;;;;12.05;5.78;;;21.80;99.90;;;;;;5078190;28;20338;-75
2023/06/06 07:18:04;;;;;;;10.52;5.82;;;21.90;99.90;;;;;;5078304;28;20655;-74
2023/06/06 07:20:31;;;;;;;11.30;6.18;;;21.90;99.90;;;;;;5036993;28;20187;-75
2023/06/06 07:22:57;;;;;;;10.77;6.70;;;22.10;99.90;;;;;;5089391;28;20201;-74
2023/06/06 07:25:23;;;;;;;13.35;6.80;;;22.10;99.90;;;;;;5058376;28;20186;-74
2023/06/06 07:27:50;;;;;;;11.40;6.72;;;22.20;99.90;;;;;;5078096;28;21517;-74
2023/06/06 07:30:16;;;;;;;9.63;6.72;;;22.20;99.90;;;;;;5072710;28;20300;-74
2023/06/06 07:32:46;;;;;;;12.07;7.43;;;22.30;99.90;;;;;;5079037;28;20747;-74
2023/06/06 07:35:19;;;;;;;7.32;5.40;;;22.40;99.90;;;;;;5053211;28;20209;-74
2023/06/06 07:37:48;;;;;;;10.52;5.88;;;22.50;99.90;;;;;;5073484;28;20746;-74
2023/06/06 07:40:16;;;;;;;8.70;5.45;;;22.50;99.90;;;;;;5078246;28;20216;-74
2023/06/06 07:42:43;;;;;;;9.93;5.55;;;22.60;99.90;;;;;;5077442;28;20177;-75
2023/06/06 07:45:10;;;;;;;10.20;5.50;;;22.70;99.90;;;;;;5063623;28;20651;-74
2023/06/06 07:47:39;;;;;;;7.57;5.78;;;22.80;99.90;;;;;;5062389;28;20198;-74
2023/06/06 07:50:06;;;;;;;10.68;6.07;;;22.90;99.90;;;;;;5077089;28;20252;-74
2023/06/06 07:52:32;;;;;;;13.18;5.32;;;23.10;99.90;;;;;;5059616;28;20245;-74
2023/06/06 07:54:59;;;;;;;9.52;5.55;;;23.20;99.90;;;;;;5061538;28;20842;-74
2023/06/06 07:57:27;;;;;;;9.02;5.50;;;23.20;99.90;;;;;;5091476;28;20266;-74
2023/06/06 07:59:54;;;;;;;11.68;5.53;;;23.30;99.90;;;;;;5089776;27;20275;-74
2023/06/06 08:02:20;;;;;;;12.07;5.35;;;23.30;99.90;;;;;;5073097;28;20720;-74
2023/06/06 08:04:46;;;;;;;8.18;5.70;;;23.40;99.90;;;;;;5061050;28;20728;-74
2023/06/06 08:07:15;;;;;;;9.23;5.80;;;23.50;99.90;;;;;;5076942;28;20227;-74
2023/06/06 08:09:42;;;;;;;7.72;6.50;;;23.60;99.90;;;;;;5065790;28;20262;-74
2023/06/06 08:12:10;;;;;;;11.35;6.32;;;23.70;99.90;;;;;;5078237;28;20654;-74
2023/06/06 08:14:37;;;;;;;10.98;6.60;;;23.70;99.90;;;;;;5075527;28;20178;-73
2023/06/06 08:17:05;;;;;;;10.82;6.38;;;23.80;99.90;;;;;;5080038;28;20296;-73
2023/06/06 08:19:32;;;;;;;15.70;6.80;;;23.80;99.90;;;;;;5051076;28;20643;-73
2023/06/06 08:22:01;;;;;;;13.82;7.13;;;23.90;99.90;;;;;;5059769;28;20281;-72
2023/06/06 08:24:29;;;;;;;10.52;5.93;;;24.00;99.90;;;;;;5071605;28;20614;-73
2023/06/06 08:26:55;;;;;;;8.90;6.43;;;24.00;99.90;;;;;;5075317;28;20214;-73
2023/06/06 08:29:21;;;;;;;12.38;6.38;;;24.10;99.90;;;;;;5076008;28;20181;-73
2023/06/06 08:31:47;;;;;;;15.05;6.88;;;24.20;99.90;;;;;;5075497;28;20189;-73
2023/06/06 08:34:14;;;;;;;13.30;6.18;;;24.20;99.90;;;;;;5062396;28;20546;-73
2023/06/06 08:36:40;;;;;;;11.55;6.38;;;24.30;99.90;;;;;;5075749;28;20190;-73
2023/06/06 08:39:06;;;;;;;11.02;6.40;;;24.20;99.90;;;;;;5060573;28;20275;-73
2023/06/06 08:41:34;;;;;;;9.48;6.43;;;24.20;99.90;;;;;;5086936;28;20193;-72
2023/06/06 08:44:02;;;;;;;9.65;6.00;;;24.40;99.90;;;;;;5076533;28;20536;-73
2023/06/06 08:46:33;;;;;;;13.85;6.40;;;24.50;99.90;;;;;;5061646;28;20553;-73
2023/06/06 08:49:08;;;;;;;11.65;6.53;;;24.50;99.90;;;;;;5073227;28;20182;-73
2023/06/06 08:51:35;;;;;;;11.95;6.65;;;24.60;99.90;;;;;;5093173;28;20185;-73
2023/06/06 08:54:04;;;;;;;13.63;6.65;;;24.70;99.90;;;;;;5076796;28;20202;-73
2023/06/06 08:56:31;;;;;;;11.13;5.90;;;24.70;99.90;;;;;;5093742;28;20194;-73
2023/06/06 08:58:58;;;;;;;13.95;6.60;;;24.80;99.90;;;;;;5079232;28;20279;-73
2023/06/06 09:01:26;;;;;;;12.38;6.65;;;24.90;99.90;;;;;;5060465;28;22171;-73
2023/06/06 09:03:56;;;;;;;11.68;6.35;;;24.80;99.90;;;;;;5076571;28;20197;-73
2023/06/06 09:06:22;;;;;;;15.10;6.20;;;25.00;99.90;;;;;;5089469;28;20213;-73
2023/06/06 09:08:50;;;;;;;8.73;6.10;;;25.10;99.90;;;;;;5065096;28;20171;-73
2023/06/06 09:11:17;;;;;;;13.60;6.57;;;25.20;99.90;;;;;;5075186;28;20665;-73
2023/06/06 09:13:45;;;;;;;10.15;6.35;;;25.30;99.90;;;;;;5075212;28;20267;-73
2023/06/06 09:16:15;;;;;;;11.13;5.82;;;25.20;99.90;;;;;;5043361;28;20293;-73
2023/06/06 09:18:42;;;;;;;14.93;6.13;;;25.40;99.90;;;;;;5072425;28;20316;-73
2023/06/06 09:21:09;;;;;;;12.30;5.85;;;25.40;99.90;;;;;;5060917;28;20281;-73
2023/06/06 09:23:36;;;;;;;11.38;6.50;;;25.40;99.90;;;;;;5056404;28;20220;-73
2023/06/06 09:26:02;;;;;;;12.10;5.80;;;25.30;99.90;;;;;;5060761;28;20186;-73
2023/06/06 09:28:39;;;;;;;14.20;6.07;;;25.30;99.90;;;;;;5078064;28;20178;-73
2023/06/06 09:31:32;;;;;;;10.73;6.43;;;25.20;99.90;;;;;;5062337;28;20189;-73
2023/06/06 09:34:01;;;;;;;11.70;6.03;;;25.40;99.90;;;;;;5048473;28;20999;-73
2023/06/06 09:36:29;;;;;;;13.43;6.93;;;25.50;99.90;;;;;;5073353;28;20589;-73
2023/06/06 09:39:13;;;;;;;9.65;5.70;;;25.60;99.90;;;;;;5080397;28;20182;-73
2023/06/06 09:41:48;;;;;;;8.68;5.35;;;25.60;99.90;;;;;;5045493;28;20210;-73
2023/06/06 09:44:30;;;;;;;14.13;6.03;;;25.70;99.90;;;;;;5091748;27;20849;-73
2023/06/06 09:47:02;;;;;;;9.60;5.70;;;25.70;99.90;;;;;;5061987;28;20210;-73
2023/06/06 09:49:36;;;;;;;10.80;6.28;;;25.50;99.90;;;;;;5081771;28;20193;-73
2023/06/06 09:52:05;;;;;;;12.02;5.90;;;25.40;99.90;;;;;;5077628;28;20257;-73
2023/06/06 09:54:33;;;;;;;12.80;5.97;;;25.40;99.90;;;;;;5077435;28;20187;-73
2023/06/06 09:57:06;;;;;;;9.73;5.90;;;25.60;99.90;;;;;;5092959;27;20190;-73
2023/06/06 09:59:33;;;;;;;9.18;5.45;;;25.70;99.90;;;;;;5079176;28;20585;-72
2023/06/06 10:02:08;;;;;;;12.23;6.22;;;25.80;99.90;;;;;;5076320;28;20347;-73
2023/06/06 10:04:35;;;;;;;10.95;5.35;;;25.70;99.90;;;;;;5061522;28;20277;-73
2023/06/06 10:07:03;;;;;;;12.40;6.15;;;25.70;99.90;;;;;;5074665;28;22148;-73
2023/06/06 10:09:31;;;;;;;9.48;5.75;;;25.80;99.90;;;;;;5077247;28;20189;-73
2023/06/06 10:11:59;;;;;;;15.85;6.57;;;25.90;99.90;;;;;;5048442;28;20274;-73
2023/06/06 10:14:28;;;;;;;11.32;5.97;;;25.80;99.90;;;;;;5056573;28;20190;-73
2023/06/06 10:16:54;;;;;;;10.77;6.53;;;25.80;99.90;;;;;;5094090;27;20294;-73
2023/06/06 10:19:25;;;;;;;13.18;5.75;;;25.90;99.90;;;;;;5062843;28;20737;-73
2023/06/06 10:21:53;;;;;;;17.90;5.75;;;26.20;99.90;;;;;;5079173;28;20197;-73
2023/06/06 10:24:20;;;;;;;12.32;5.90;;;26.30;99.90;;;;;;5057591;28;20722;-73
2023/06/06 10:26:58;;;;;;;13.32;5.78;;;26.30;99.90;;;;;;5074281;28;20210;-73
2023/06/06 10:30:01;;;;;;;13.48;5.40;;;26.40;99.90;;;;;;5081185;28;20306;-73
2023/06/06 10:32:53;;;;;;;12.70;5.53;;;26.40;99.90;;;;;;5063530;28;20269;-73
2023/06/06 10:35:20;;;;;;;8.60;5.50;;;26.60;99.90;;;;;;5075993;28;20682;-73
2023/06/06 10:38:10;;;;;;;11.32;6.25;;;26.40;99.90;;;;;;5055436;28;20186;-73
2023/06/06 10:40:58;;;;;;;11.10;5.20;;;26.20;99.90;;;;;;5073278;28;20190;-73
2023/06/06 10:43:41;;;;;;;11.00;5.20;;;26.20;99.90;;;;;;5074237;28;20294;-73
2023/06/06 10:46:08;;;;;;;11.77;6.25;;;26.20;99.90;;;;;;5081928;28;20177;-73
2023/06/06 10:48:43;;;;;;;10.30;5.28;;;26.00;99.90;;;;;;5075260;28;20182;-73
2023/06/06 10:51:28;;;;;;;11.85;5.80;;;26.00;99.90;;;;;;5051219;28;20259;-73
2023/06/06 10:54:16;;;;;;;11.30;5.68;;;25.90;99.90;;;;;;5093718;28;20177;-73
2023/06/06 10:56:54;;;;;;;9.57;5.72;;;25.80;99.90;;;;;;5075222;28;20298;-73
2023/06/06 10:59:31;;;;;;;9.55;5.50;;;25.70;99.90;;;;;;5057886;28;20196;-73
2023/06/06 11:01:58;;;;;;;8.48;5.68;;;25.80;99.90;;;;;;5058461;28;20329;-73
2023/06/06 11:04:29;;;;;;;11.68;6.13;;;25.80;99.90;;;;;;5080020;28;20627;-73
2023/06/06 11:07:00;;;;;;;9.80;5.75;;;25.70;99.90;;;;;;5057913;28;20386;-73
2023/06/06 11:09:33;;;;;;;14.00;5.95;;;25.60;99.90;;;;;;5081545;28;20213;-73
2023/06/06 11:12:14;;;;;;;11.10;5.50;;;25.70;99.90;;;;;;5056992;28;20184;-73
2023/06/06 11:15:08;;;;;;;8.90;5.80;;;25.60;99.90;;;;;;5074093;28;20174;-73
2023/06/06 11:17:53;;;;;;;10.05;5.35;;;25.70;99.90;;;;;;5075861;28;20701;-73
2023/06/06 11:20:32;;;;;;;11.25;5.78;;;25.70;99.90;;;;;;5093167;27;20186;-73
2023/06/06 11:23:02;;;;;;;9.77;5.75;;;25.60;99.90;;;;;;5073983;28;20198;-73
2023/06/06 11:25:30;;;;;;;10.13;6.00;;;25.70;99.90;;;;;;5073167;28;20254;-73
2023/06/06 11:27:58;;;;;;;10.93;6.50;;;25.60;99.90;;;;;;5071185;28;20199;-73
2023/06/06 11:30:31;;;;;;;8.60;5.57;;;25.50;99.90;;;;;;5074824;28;20246;-73
2023/06/06 11:32:57;;;;;;;9.00;5.40;;;25.60;99.90;;;;;;5057104;28;20194;-73
2023/06/06 11:35:24;;;;;;;10.57;5.63;;;25.60;99.90;;;;;;5074435;28;20182;-73
2023/06/06 11:37:50;;;;;;;12.55;5.43;;;25.60;99.90;;;;;;5067800;28;20278;-73
2023/06/06 11:40:17;;;;;;;9.82;5.40;;;25.70;99.90;;;;;;5063073;28;20718;-73
2023/06/06 11:42:44;;;;;;;8.32;5.20;;;25.50;99.90;;;;;;5077652;28;20178;-73
2023/06/06 11:45:18;;;;;;;7.43;5.32;;;25.60;99.90;;;;;;5054344;28;20194;-73
2023/06/06 11:47:45;;;;;;;7.80;5.20;;;25.60;99.90;;;;;;5052197;28;20868;-73
2023/06/06 11:50:13;;;;;;;7.22;4.78;;;25.70;99.90;;;;;;5038071;28;20302;-73
2023/06/06 11:52:48;;;;;;;9.07;4.43;;;25.70;99.90;;;;;;5053139;28;20857;-73
2023/06/06 11:55:15;;;;;;;8.05;4.85;;;25.60;99.90;;;;;;5050962;28;20250;-73
2023/06/06 11:57:43;;;;;;;7.70;4.63;;;25.60;99.90;;;;;;5052370;28;20273;-73
2023/06/06 12:00:17;;;;;;;9.45;4.75;;;25.50;99.90;;;;;;5053467;28;20193;-73
2023/06/06 12:02:51;;;;;;;8.55;4.20;;;25.70;99.90;;;;;;5064007;28;20189;-73
2023/06/06 12:05:26;;;;;;;9.38;4.47;;;25.70;99.90;;;;;;5059281;28;20285;-73
2023/06/06 12:07:58;;;;;;;13.43;4.57;;;25.60;99.90;;;;;;5077386;28;20209;-73
2023/06/06 12:10:32;;;;;;;7.38;4.32;;;25.50;99.90;;;;;;5060663;28;20786;-73
2023/06/06 12:12:59;;;;;;;9.77;4.57;;;25.50;99.90;;;;;;5057268;28;20293;-73
2023/06/06 12:15:48;;;;;;;8.43;4.28;;;25.60;99.90;;;;;;5077665;28;20190;-73
2023/06/06 12:18:14;;;;;;;9.88;4.20;;;25.60;99.90;;;;;;5089285;27;20194;-73
2023/06/06 12:20:40;;;;;;;8.00;3.47;;;25.50;99.90;;;;;;5067251;28;20696;-73
2023/06/06 12:23:06;;;;;;;8.00;4.05;;;25.60;99.90;;;;;;5038872;28;20213;-73
2023/06/06 12:25:33;;;;;;;9.93;3.97;;;25.60;99.90;;;;;;5083521;28;20210;-73
2023/06/06 12:28:10;;;;;;;11.98;3.40;;;25.50;99.90;;;;;;5054959;28;20904;-73
2023/06/06 12:30:38;;;;;;;10.68;4.30;;;25.50;99.90;;;;;;5080087;28;20660;-73
2023/06/06 12:33:05;;;;;;;7.10;3.78;;;25.50;99.90;;;;;;5076221;28;20276;-73
2023/06/06 12:35:31;;;;;;;6.65;3.60;;;25.50;99.90;;;;;;5071645;28;20203;-73
2023/06/06 12:38:01;;;;;;;9.43;4.43;;;25.70;99.90;;;;;;5052824;28;20258;-73
2023/06/06 12:40:33;;;;;;;8.60;4.35;;;25.70;99.90;;;;;;5087686;27;20193;-73
2023/06/06 12:43:07;;;;;;;6.63;4.20;;;25.70;99.90;;;;;;5077415;28;20210;-73
2023/06/06 12:45:37;;;;;;;7.47;4.13;;;25.80;99.90;;;;;;5057281;28;20208;-73
2023/06/06 12:48:04;;;;;;;6.88;3.95;;;25.70;99.90;;;;;;5066162;28;20304;-73